^^
Datos históricos de la estación: Murcia-Puente Tocinos
Diario Informe para Agosto 6, 2019 Unidades:  Métrico    Inglés   Ambas
Diario Semanal Mensual Anual Configurable
  Máximo: Mínimo: Media:
Temperatura: 38.1 °C 24.9 °C 30.1 °C
Punto de rocio: 23.2 °C 16.2 °C 21.3 °C
Humedad: 88% 28% 64%
Velocidad viento: 20.1km/h 0.0km/h 7.9km/h
Racha viento: 31.5km/h - -
Viento- - SE
Presión: 1011.6 hPa 1005.9 hPa -
Precipitación: 0.0 mm    
Historical Graphs
 
 
Tabla de datos para Agosto 6, 2019
Hora Temperatura Punto de rocio Presión Viento Velocidad viento Racha viento Humedad Intensidad lluvia(por hora) Nubes
00:00 26.7 °C 22.6 °C 1011.5 hPa NE 9.5 km/h 13.0 km/h 78% 0.0 mm CLR
00:05 26.6 °C 22.4 °C 1011.6 hPa NNE 9.5 km/h 13.0 km/h 78% 0.0 mm CLR
00:10 26.6 °C 22.4 °C 1011.6 hPa ENE 8.7 km/h 11.1 km/h 78% 0.0 mm CLR
00:15 26.6 °C 22.7 °C 1011.6 hPa ENE 8.7 km/h 11.1 km/h 79% 0.0 mm CLR
00:20 26.4 °C 22.4 °C 1011.4 hPa NNE 8.4 km/h 9.5 km/h 79% 0.0 mm CLR
00:25 26.4 °C 22.7 °C 1011.4 hPa NNE 8.4 km/h 9.3 km/h 80% 0.0 mm CLR
00:30 26.3 °C 22.6 °C 1011.4 hPa ENE 6.9 km/h 11.1 km/h 80% 0.0 mm CLR
00:35 26.3 °C 22.6 °C 1011.5 hPa NE 6.9 km/h 13.0 km/h 80% 0.0 mm CLR
00:40 26.2 °C 22.7 °C 1011.5 hPa NNE 8.4 km/h 9.5 km/h 81% 0.0 mm CLR
00:45 26.2 °C 22.7 °C 1011.5 hPa NNE 8.4 km/h 9.3 km/h 81% 0.0 mm CLR
00:50 26.1 °C 22.6 °C 1011.5 hPa NE 6.9 km/h 13.0 km/h 81% 0.0 mm CLR
00:55 26.1 °C 22.6 °C 1011.5 hPa NE 6.9 km/h 9.3 km/h 81% 0.0 mm CLR
01:00 26.1 °C 22.8 °C 1011.5 hPa North 8.4 km/h 13.7 km/h 82% 0.0 mm CLR
01:05 26.0 °C 22.7 °C 1011.4 hPa North 8.4 km/h 11.1 km/h 82% 0.0 mm CLR
01:10 26.0 °C 22.7 °C 1011.4 hPa ENE 7.6 km/h 9.3 km/h 82% 0.0 mm CLR
01:15 26.0 °C 22.7 °C 1011.4 hPa NE 7.6 km/h 9.3 km/h 82% 0.0 mm CLR
01:20 25.9 °C 22.8 °C 1011.5 hPa East 7.6 km/h 13.0 km/h 83% 0.0 mm CLR
01:25 25.9 °C 22.8 °C 1011.5 hPa ENE 7.6 km/h 11.1 km/h 83% 0.0 mm CLR
01:30 25.9 °C 22.8 °C 1011.5 hPa NE 6.9 km/h 11.1 km/h 83% 0.0 mm CLR
01:35 25.8 °C 22.7 °C 1011.5 hPa NE 6.9 km/h 5.6 km/h 83% 0.0 mm CLR
01:40 25.8 °C 22.9 °C 1011.5 hPa NNE 5.0 km/h 8.4 km/h 84% 0.0 mm CLR
01:45 25.7 °C 22.8 °C 1011.5 hPa North 5.0 km/h 7.6 km/h 84% 0.0 mm CLR
01:50 25.7 °C 22.8 °C 1011.4 hPa North 6.9 km/h 9.5 km/h 84% 0.0 mm CLR
01:55 25.7 °C 22.8 °C 1011.4 hPa NNE 6.9 km/h 7.4 km/h 84% 0.0 mm CLR
02:00 25.7 °C 22.8 °C 1011.4 hPa North 6.4 km/h 9.3 km/h 84% 0.0 mm CLR
02:05 25.7 °C 23.0 °C 1011.4 hPa NNE 6.4 km/h 8.7 km/h 85% 0.0 mm CLR
02:10 25.7 °C 23.0 °C 1011.4 hPa North 5.8 km/h 7.4 km/h 85% 0.0 mm CLR
02:15 25.6 °C 22.9 °C 1011.4 hPa NNE 5.8 km/h 7.4 km/h 85% 0.0 mm CLR
02:20 25.7 °C 23.0 °C 1011.3 hPa NE 5.0 km/h 9.5 km/h 85% 0.0 mm CLR
02:25 25.6 °C 22.9 °C 1011.3 hPa NNE 5.0 km/h 9.3 km/h 85% 0.0 mm CLR
02:30 25.6 °C 22.9 °C 1011.3 hPa North 6.4 km/h 9.5 km/h 85% 0.0 mm CLR
02:35 25.6 °C 22.9 °C 1011.2 hPa NNE 6.4 km/h 11.1 km/h 85% 0.0 mm CLR
02:40 25.5 °C 22.8 °C 1011.2 hPa ENE 6.9 km/h 9.3 km/h 85% 0.0 mm CLR
02:45 25.4 °C 22.7 °C 1011.2 hPa NE 6.9 km/h 9.3 km/h 85% 0.0 mm CLR
02:50 25.4 °C 22.9 °C 1011.0 hPa NNE 6.4 km/h 9.3 km/h 86% 0.0 mm CLR
02:55 25.4 °C 22.9 °C 1011.0 hPa NE 6.4 km/h 7.4 km/h 86% 0.0 mm CLR
03:00 25.4 °C 22.9 °C 1011.0 hPa NE 4.7 km/h 3.7 km/h 86% 0.0 mm CLR
03:05 25.4 °C 22.9 °C 1011.2 hPa ENE 4.7 km/h 7.4 km/h 86% 0.0 mm CLR
03:10 25.4 °C 22.9 °C 1011.2 hPa North 3.2 km/h 5.6 km/h 86% 0.0 mm CLR
03:15 25.4 °C 22.9 °C 1011.2 hPa NNW 3.2 km/h 5.6 km/h 86% 0.0 mm CLR
03:20 25.4 °C 22.9 °C 1011.0 hPa NNE 3.2 km/h 3.7 km/h 86% 0.0 mm CLR
03:25 25.4 °C 22.9 °C 1011.0 hPa NNE 3.2 km/h 5.6 km/h 86% 0.0 mm CLR
03:30 25.4 °C 22.9 °C 1011.0 hPa ENE 2.3 km/h   86% 0.0 mm CLR
03:35 25.4 °C 22.9 °C 1011.1 hPa NW 2.3 km/h 7.4 km/h 86% 0.0 mm CLR
03:40 25.4 °C 22.9 °C 1011.1 hPa NW 3.2 km/h 7.4 km/h 86% 0.0 mm CLR
03:45 25.4 °C 22.9 °C 1011.1 hPa NW 3.2 km/h 5.6 km/h 86% 0.0 mm CLR
03:50 25.4 °C 22.9 °C 1011.1 hPa NW 2.9 km/h 3.7 km/h 86% 0.0 mm CLR
03:55 25.3 °C 22.8 °C 1011.1 hPa NW 2.9 km/h   86% 0.0 mm CLR
04:00 25.3 °C 22.8 °C 1011.1 hPa Calm     86% 0.0 mm CLR
04:05 25.3 °C 22.8 °C 1011.0 hPa Calm     86% 0.0 mm CLR
04:10 25.3 °C 23.0 °C 1011.0 hPa Calm   3.7 km/h 87% 0.0 mm CLR
04:15 25.3 °C 23.0 °C 1011.0 hPa Calm   5.0 km/h 87% 0.0 mm CLR
04:20 25.3 °C 23.0 °C 1010.9 hPa WNW 2.3 km/h   87% 0.0 mm CLR
04:25 25.3 °C 23.0 °C 1010.9 hPa WNW 2.3 km/h   87% 0.0 mm CLR
04:30 25.3 °C 23.0 °C 1010.9 hPa Calm     87% 0.0 mm CLR
04:35 25.3 °C 23.0 °C 1010.8 hPa Calm     87% 0.0 mm CLR
04:40 25.3 °C 23.0 °C 1010.8 hPa Calm   7.4 km/h 87% 0.0 mm CLR
04:45 25.3 °C 23.0 °C 1010.8 hPa Calm   3.7 km/h 87% 0.0 mm CLR
04:50 25.3 °C 23.0 °C 1010.8 hPa NE 2.3 km/h   87% 0.0 mm CLR
04:55 25.3 °C 23.0 °C 1010.8 hPa NE 2.3 km/h   87% 0.0 mm CLR
05:00 25.3 °C 23.0 °C 1010.8 hPa Calm     87% 0.0 mm CLR
05:05 25.3 °C 23.0 °C 1010.7 hPa Calm     87% 0.0 mm CLR
05:10 25.3 °C 23.0 °C 1010.7 hPa Calm     87% 0.0 mm CLR
05:15 25.3 °C 23.0 °C 1010.7 hPa Calm   3.7 km/h 87% 0.0 mm CLR
05:20 25.3 °C 23.0 °C 1010.5 hPa NNW 2.3 km/h 5.6 km/h 87% 0.0 mm CLR
05:25 25.3 °C 23.0 °C 1010.5 hPa NW 2.3 km/h 9.3 km/h 87% 0.0 mm CLR
05:30 25.2 °C 22.9 °C 1010.5 hPa WNW 3.2 km/h 7.4 km/h 87% 0.0 mm CLR
05:35 25.2 °C 22.9 °C 1010.3 hPa NW 3.2 km/h 7.4 km/h 87% 0.0 mm CLR
05:40 25.1 °C 22.8 °C 1010.3 hPa NW 5.0 km/h 5.6 km/h 87% 0.0 mm CLR
05:45 25.1 °C 22.8 °C 1010.3 hPa NNW 5.0 km/h 7.4 km/h 87% 0.0 mm CLR
05:50 25.1 °C 22.8 °C 1010.5 hPa NNW 2.9 km/h   87% 0.0 mm CLR
05:55 25.1 °C 22.8 °C 1010.5 hPa NNW 2.9 km/h   87% 0.0 mm CLR
06:00 25.1 °C 22.8 °C 1010.5 hPa Calm     87% 0.0 mm CLR
06:05 25.1 °C 22.9 °C 1010.7 hPa Calm     88% 0.0 mm CLR
06:10 25.1 °C 22.9 °C 1010.7 hPa Calm   6.4 km/h 88% 0.0 mm CLR
06:15 25.0 °C 22.7 °C 1010.7 hPa Calm   8.4 km/h 87% 0.0 mm CLR
06:20 24.9 °C 22.6 °C 1010.6 hPa SSE 5.0 km/h 7.4 km/h 87% 0.0 mm CLR
06:25 25.0 °C 22.9 °C 1010.6 hPa SSE 5.0 km/h 5.8 km/h 88% 0.0 mm CLR
06:30 24.9 °C 22.8 °C 1010.6 hPa South 3.9 km/h 5.6 km/h 88% 0.0 mm CLR
06:35 25.0 °C 22.9 °C 1010.4 hPa South 3.9 km/h   88% 0.0 mm CLR
06:40 25.0 °C 22.9 °C 1010.4 hPa SW 2.3 km/h 5.6 km/h 88% 0.0 mm CLR
06:45 25.1 °C 22.8 °C 1010.4 hPa SW 2.3 km/h 7.4 km/h 87% 0.0 mm CLR
06:50 25.1 °C 22.8 °C 1010.4 hPa SW 3.9 km/h 7.4 km/h 87% 0.0 mm CLR
06:55 25.2 °C 22.9 °C 1010.4 hPa SSE 3.9 km/h 7.4 km/h 87% 0.0 mm CLR
07:00 25.2 °C 22.7 °C 1010.4 hPa SSW 5.8 km/h 8.7 km/h 86% 0.0 mm CLR
07:05 25.2 °C 22.7 °C 1010.4 hPa SW 5.8 km/h 9.3 km/h 86% 0.0 mm CLR
07:10 25.3 °C 22.8 °C 1010.4 hPa SSW 5.8 km/h 7.4 km/h 86% 0.0 mm CLR
07:15 25.3 °C 22.8 °C 1010.4 hPa WSW 5.8 km/h 7.4 km/h 86% 0.0 mm CLR
07:20 25.3 °C 22.6 °C 1010.4 hPa WNW 4.7 km/h 7.4 km/h 85% 0.0 mm CLR
07:25 25.2 °C 22.7 °C 1010.4 hPa WNW 4.7 km/h 4.7 km/h 86% 0.0 mm CLR
07:30 25.2 °C 22.7 °C 1010.4 hPa WNW 2.9 km/h 5.0 km/h 86% 0.0 mm CLR
07:35 25.2 °C 22.7 °C 1010.6 hPa WNW 2.9 km/h 3.7 km/h 86% 0.0 mm CLR
07:40 25.1 °C 22.6 °C 1010.6 hPa WNW 2.3 km/h 5.6 km/h 86% 0.0 mm CLR
07:45 25.1 °C 22.6 °C 1010.6 hPa WNW 2.3 km/h 5.6 km/h 86% 0.0 mm CLR
07:50 25.1 °C 22.6 °C 1010.7 hPa WNW 3.2 km/h 5.6 km/h 86% 0.0 mm CLR
07:55 25.2 °C 22.7 °C 1010.7 hPa SSE 3.2 km/h 8.4 km/h 86% 0.0 mm CLR
08:00 25.2 °C 22.5 °C 1010.7 hPa South 5.0 km/h 7.4 km/h 85% 0.0 mm CLR
08:05 25.3 °C 22.6 °C 1010.9 hPa South 5.0 km/h 9.3 km/h 85% 0.0 mm CLR
08:10 25.4 °C 22.5 °C 1010.9 hPa SSE 6.9 km/h 9.3 km/h 84% 0.0 mm CLR
08:15 25.4 °C 22.5 °C 1010.9 hPa South 6.9 km/h 9.3 km/h 84% 0.0 mm CLR
08:20 25.5 °C 22.6 °C 1011.1 hPa SSE 5.8 km/h 5.6 km/h 84% 0.0 mm CLR
08:25 25.6 °C 22.5 °C 1011.1 hPa SSE 5.8 km/h 7.4 km/h 83% 0.0 mm CLR
08:30 25.7 °C 22.6 °C 1011.1 hPa SSE 4.7 km/h 5.6 km/h 83% 0.0 mm CLR
08:35 25.8 °C 22.7 °C 1011.2 hPa ESE 4.7 km/h 8.7 km/h 83% 0.0 mm CLR
08:40 25.8 °C 22.7 °C 1011.2 hPa ESE 5.0 km/h 9.3 km/h 83% 0.0 mm CLR
08:45 25.8 °C 22.7 °C 1011.2 hPa East 5.0 km/h 7.4 km/h 83% 0.0 mm CLR
08:50 25.9 °C 22.8 °C 1011.3 hPa East 5.0 km/h 7.4 km/h 83% 0.0 mm CLR
08:55 26.2 °C 22.9 °C 1011.3 hPa East 5.0 km/h 2.3 km/h 82% 0.0 mm CLR
09:00 26.5 °C 22.9 °C 1011.3 hPa Calm     81% 0.0 mm CLR
09:05 26.8 °C 22.8 °C 1011.3 hPa Calm     79% 0.0 mm CLR
09:10 27.1 °C 22.9 °C 1011.3 hPa Calm     78% 0.0 mm CLR
09:15 27.4 °C 23.0 °C 1011.3 hPa Calm   5.0 km/h 77% 0.0 mm CLR
09:20 27.7 °C 22.9 °C 1011.5 hPa Calm   5.6 km/h 75% 0.0 mm CLR
09:25 27.8 °C 22.9 °C 1011.5 hPa Calm   10.3 km/h 75% 0.0 mm CLR
09:30 27.8 °C 22.9 °C 1011.5 hPa NW 3.9 km/h 3.7 km/h 75% 0.0 mm CLR
09:35 27.7 °C 22.9 °C 1011.2 hPa NNE 3.9 km/h 3.7 km/h 75% 0.0 mm CLR
09:40 27.8 °C 22.9 °C 1011.2 hPa ENE 2.9 km/h   75% 0.0 mm CLR
09:45 27.9 °C 23.1 °C 1011.2 hPa NNE 2.9 km/h 3.9 km/h 75% 0.0 mm CLR
09:50 28.1 °C 23.0 °C 1011.5 hPa NNW 2.3 km/h 7.4 km/h 74% 0.0 mm CLR
09:55 28.0 °C 22.9 °C 1011.5 hPa West 2.3 km/h 7.4 km/h 74% 0.0 mm CLR
10:00 27.9 °C 22.8 °C 1011.5 hPa West 4.7 km/h 7.4 km/h 74% 0.0 mm CLR
10:05 27.9 °C 23.1 °C 1011.5 hPa NW 4.7 km/h 8.4 km/h 75% 0.0 mm CLR
10:10 28.0 °C 23.2 °C 1011.5 hPa NNE 3.9 km/h 1.9 km/h 75% 0.0 mm CLR
10:15 28.2 °C 22.9 °C 1011.5 hPa WSW 3.9 km/h 11.1 km/h 73% 0.0 mm CLR
10:20 28.1 °C 22.8 °C 1011.4 hPa SW 3.9 km/h 7.6 km/h 73% 0.0 mm CLR
10:25 28.1 °C 22.8 °C 1011.4 hPa NW 3.9 km/h 11.1 km/h 73% 0.0 mm CLR
10:30 28.1 °C 22.8 °C 1011.4 hPa NW 5.8 km/h 14.8 km/h 73% 0.0 mm CLR
10:35 28.1 °C 22.8 °C 1011.4 hPa NNE 5.8 km/h 7.4 km/h 73% 0.0 mm CLR
10:40 28.2 °C 22.9 °C 1011.4 hPa SE 6.4 km/h   73% 0.0 mm CLR
10:45 28.6 °C 23.1 °C 1011.4 hPa ESE 6.4 km/h   72% 0.0 mm CLR
10:50 28.9 °C 22.9 °C 1011.5 hPa Calm   5.6 km/h 70% 0.0 mm CLR
10:55 29.1 °C 22.8 °C 1011.5 hPa Calm   7.4 km/h 69% 0.0 mm CLR
11:00 29.1 °C 22.8 °C 1011.5 hPa East 5.0 km/h 7.4 km/h 69% 0.0 mm CLR
11:05 29.2 °C 22.7 °C 1011.3 hPa NNW 5.0 km/h 7.4 km/h 68% 0.0 mm CLR
11:10 29.2 °C 22.7 °C 1011.3 hPa NE 6.4 km/h 11.1 km/h 68% 0.0 mm CLR
11:15 29.4 °C 22.9 °C 1011.3 hPa ENE 6.4 km/h 7.4 km/h 68% 0.0 mm CLR
11:20 29.6 °C 22.6 °C 1011.4 hPa WNW 5.0 km/h 3.7 km/h 66% 0.0 mm CLR
11:25 29.6 °C 22.3 °C 1011.4 hPa WNW 5.0 km/h 9.3 km/h 65% 0.0 mm CLR
11:30 29.6 °C 22.1 °C 1011.4 hPa West 5.0 km/h 5.0 km/h 64% 0.0 mm CLR
11:35 29.8 °C 22.0 °C 1011.1 hPa SSW 5.0 km/h 5.6 km/h 63% 0.0 mm CLR
11:40 30.0 °C 21.9 °C 1011.1 hPa WNW 3.9 km/h 7.4 km/h 62% 0.0 mm CLR
11:45 30.3 °C 22.2 °C 1011.1 hPa NNW 3.9 km/h 11.1 km/h 62% 0.0 mm CLR
11:50 30.4 °C 22.1 °C 1010.9 hPa SW 5.8 km/h 9.3 km/h 61% 0.0 mm CLR
11:55 30.4 °C 22.1 °C 1010.9 hPa West 5.8 km/h 9.3 km/h 61% 0.0 mm CLR
12:00 30.6 °C 21.9 °C 1010.9 hPa NNW 4.7 km/h 7.4 km/h 60% 0.0 mm CLR
12:05 30.9 °C 21.9 °C 1010.9 hPa NE 4.7 km/h 5.6 km/h 59% 0.0 mm CLR
12:10 31.4 °C 21.8 °C 1010.9 hPa SE 4.7 km/h 3.7 km/h 57% 0.0 mm CLR
12:15 31.8 °C 21.7 °C 1010.9 hPa WNW 4.7 km/h 11.1 km/h 55% 0.0 mm CLR
12:20 31.8 °C 21.3 °C 1010.9 hPa North 3.9 km/h 7.4 km/h 54% 0.0 mm CLR
12:25 31.9 °C 21.7 °C 1010.9 hPa NNW 3.9 km/h 5.6 km/h 55% 0.0 mm CLR
12:30 32.2 °C 22.0 °C 1010.9 hPa SE 5.0 km/h 3.7 km/h 55% 0.0 mm CLR
12:35 32.5 °C 22.0 °C 1010.8 hPa NNE 5.0 km/h 9.3 km/h 54% 0.0 mm CLR
12:40 32.6 °C 21.8 °C 1010.8 hPa North 4.7 km/h 9.3 km/h 53% 0.0 mm CLR
12:45 32.7 °C 21.9 °C 1010.8 hPa NNW 4.7 km/h 7.4 km/h 53% 0.0 mm CLR
12:50 32.8 °C 21.7 °C 1010.5 hPa North 6.4 km/h 9.3 km/h 52% 0.0 mm CLR
12:55 32.9 °C 21.7 °C 1010.5 hPa NW 6.4 km/h 11.1 km/h 52% 0.0 mm CLR
13:00 33.0 °C 21.8 °C 1010.5 hPa ENE 6.9 km/h 11.1 km/h 52% 0.0 mm CLR
13:05 33.3 °C 21.4 °C 1010.4 hPa NNW 6.9 km/h 9.3 km/h 50% 0.0 mm CLR
13:10 33.6 °C 21.7 °C 1010.4 hPa NNW 5.8 km/h 7.4 km/h 50% 0.0 mm CLR
13:15 33.8 °C 21.3 °C 1010.4 hPa NNE 5.8 km/h 9.3 km/h 48% 0.0 mm CLR
13:20 34.1 °C 21.2 °C 1010.1 hPa NNE 5.8 km/h 11.1 km/h 47% 0.0 mm CLR
13:25 34.2 °C 21.6 °C 1010.1 hPa NE 5.8 km/h 11.1 km/h 48% 0.0 mm CLR
13:30 34.3 °C 21.4 °C 1010.1 hPa ENE 6.9 km/h 13.0 km/h 47% 0.0 mm CLR
13:35 34.3 °C 21.0 °C 1009.8 hPa SE 6.9 km/h 7.6 km/h 46% 0.0 mm CLR
13:40 34.4 °C 21.4 °C 1009.8 hPa NNE 7.6 km/h 14.8 km/h 47% 0.0 mm CLR
13:45 34.4 °C 21.1 °C 1009.8 hPa ENE 7.6 km/h 9.3 km/h 46% 0.0 mm CLR
13:50 34.7 °C 21.0 °C 1009.6 hPa NE 7.6 km/h 11.1 km/h 45% 0.0 mm CLR
13:55 35.0 °C 20.6 °C 1009.6 hPa ENE 7.6 km/h 16.7 km/h 43% 0.0 mm CLR
14:00 35.2 °C 20.7 °C 1009.6 hPa NE 8.4 km/h 12.2 km/h 43% 0.0 mm CLR
14:05 35.2 °C 20.3 °C 1009.4 hPa North 8.4 km/h 13.0 km/h 42% 0.0 mm CLR
14:10 35.4 °C 20.2 °C 1009.4 hPa NE 8.4 km/h 13.0 km/h 41% 0.0 mm CLR
14:15 35.5 °C 19.8 °C 1009.4 hPa NW 8.4 km/h 11.1 km/h 40% 0.0 mm CLR
14:20 35.7 °C 20.0 °C 1009.1 hPa East 9.5 km/h 13.0 km/h 40% 0.0 mm CLR
14:25 35.9 °C 18.9 °C 1009.1 hPa NE 9.5 km/h 13.0 km/h 37% 0.0 mm CLR
14:30 36.1 °C 19.1 °C 1009.1 hPa WNW 8.4 km/h 18.5 km/h 37% 0.0 mm CLR
14:35 36.4 °C 18.9 °C 1008.9 hPa NNE 8.4 km/h 18.5 km/h 36% 0.0 mm CLR
14:40 36.5 °C 19.0 °C 1008.9 hPa North 8.7 km/h 11.1 km/h 36% 0.0 mm CLR
14:45 36.6 °C 19.1 °C 1008.9 hPa NNW 8.7 km/h 5.6 km/h 36% 0.0 mm CLR
14:50 37.1 °C 18.6 °C 1008.7 hPa ENE 6.4 km/h 18.5 km/h 34% 0.0 mm CLR
14:55 37.1 °C 18.6 °C 1008.7 hPa NNE 6.4 km/h 9.3 km/h 34% 0.0 mm CLR
15:00 37.2 °C 18.7 °C 1008.7 hPa NE 9.5 km/h 8.4 km/h 34% 0.0 mm CLR
15:05 37.3 °C 18.8 °C 1008.4 hPa ENE 9.5 km/h 13.0 km/h 34% 0.0 mm CLR
15:10 37.3 °C 18.8 °C 1008.4 hPa NE 8.7 km/h 13.7 km/h 34% 0.0 mm CLR
15:15 37.2 °C 19.2 °C 1008.4 hPa NE 8.7 km/h 16.1 km/h 35% 0.0 mm CLR
15:20 37.5 °C 19.0 °C 1008.4 hPa ENE 8.7 km/h 18.5 km/h 34% 0.0 mm CLR
15:25 37.6 °C 19.1 °C 1008.4 hPa NW 8.7 km/h 3.7 km/h 34% 0.0 mm CLR
15:30 37.7 °C 18.7 °C 1008.4 hPa SSW 10.0 km/h 16.7 km/h 33% 0.0 mm CLR
15:35 37.8 °C 18.8 °C 1008.1 hPa SSE 10.0 km/h 24.5 km/h 33% 0.0 mm CLR
15:40 38.0 °C 18.4 °C 1008.1 hPa SE 11.1 km/h 24.1 km/h 32% 0.0 mm CLR
15:45 37.8 °C 18.3 °C 1008.1 hPa ESE 11.1 km/h 25.9 km/h 32% 0.0 mm CLR
15:50 37.6 °C 18.6 °C 1008.1 hPa SE 16.4 km/h 22.5 km/h 33% 0.0 mm CLR
15:55 37.6 °C 18.6 °C 1008.1 hPa SE 16.4 km/h 16.7 km/h 33% 0.0 mm CLR
16:00 37.6 °C 18.6 °C 1008.1 hPa ESE 13.0 km/h 14.8 km/h 33% 0.0 mm CLR
16:05 37.7 °C 18.7 °C 1007.9 hPa ESE 13.0 km/h 14.8 km/h 33% 0.0 mm CLR
16:10 37.8 °C 18.3 °C 1007.9 hPa ESE 11.9 km/h 16.7 km/h 32% 0.0 mm CLR
16:15 37.9 °C 18.3 °C 1007.9 hPa ESE 11.9 km/h 18.5 km/h 32% 0.0 mm CLR
16:20 37.9 °C 18.3 °C 1007.7 hPa East 13.7 km/h 27.8 km/h 32% 0.0 mm CLR
16:25 37.7 °C 18.2 °C 1007.7 hPa East 13.7 km/h 27.8 km/h 32% 0.0 mm CLR
16:30 37.8 °C 17.8 °C 1007.7 hPa SE 17.2 km/h 21.7 km/h 31% 0.0 mm CLR
16:35 37.9 °C 16.8 °C 1007.3 hPa ESE 17.2 km/h 28.2 km/h 29% 0.0 mm CLR
16:40 37.8 °C 16.7 °C 1007.3 hPa ESE 16.1 km/h 27.8 km/h 29% 0.0 mm CLR
16:45 37.8 °C 16.7 °C 1007.3 hPa ESE 16.1 km/h 13.7 km/h 29% 0.0 mm CLR
16:50 38.1 °C 16.4 °C 1007.1 hPa East 14.8 km/h 27.8 km/h 28% 0.0 mm CLR
16:55 37.8 °C 16.2 °C 1007.1 hPa SE 14.8 km/h 22.2 km/h 28% 0.0 mm CLR
17:00 37.9 °C 16.2 °C 1007.1 hPa East 17.2 km/h 16.7 km/h 28% 0.0 mm CLR
17:05 37.9 °C 16.2 °C 1007.1 hPa SE 17.2 km/h 24.1 km/h 28% 0.0 mm CLR
17:10 37.8 °C 16.2 °C 1007.1 hPa East 16.1 km/h 25.9 km/h 28% 0.0 mm CLR
17:15 37.9 °C 16.2 °C 1007.1 hPa ESE 16.1 km/h 20.4 km/h 28% 0.0 mm CLR
17:20 37.8 °C 17.2 °C 1006.8 hPa ESE 15.6 km/h 18.5 km/h 30% 0.0 mm CLR
17:25 37.9 °C 16.8 °C 1006.8 hPa SE 15.6 km/h 23.3 km/h 29% 0.0 mm CLR
17:30 37.8 °C 16.7 °C 1006.8 hPa ESE 16.1 km/h 22.2 km/h 29% 0.0 mm CLR
17:35 37.8 °C 17.8 °C 1006.7 hPa ESE 16.1 km/h 24.1 km/h 31% 0.0 mm CLR
17:40 37.7 °C 17.7 °C 1006.7 hPa ESE 16.1 km/h 20.4 km/h 31% 0.0 mm CLR
17:45 37.8 °C 17.2 °C 1006.7 hPa ESE 16.1 km/h 22.5 km/h 30% 0.0 mm CLR
17:50 37.9 °C 16.8 °C 1006.5 hPa ESE 13.7 km/h 22.2 km/h 29% 0.0 mm CLR
17:55 37.9 °C 17.3 °C 1006.5 hPa ESE 13.7 km/h 22.2 km/h 30% 0.0 mm CLR
18:00 37.9 °C 17.8 °C 1006.5 hPa SE 15.6 km/h 20.1 km/h 31% 0.0 mm CLR
18:05 37.9 °C 18.3 °C 1006.4 hPa ESE 15.6 km/h 22.2 km/h 32% 0.0 mm CLR
18:10 37.6 °C 18.6 °C 1006.4 hPa ESE 15.6 km/h 24.1 km/h 33% 0.0 mm CLR
18:15 37.6 °C 19.6 °C 1006.4 hPa SE 15.6 km/h 20.4 km/h 35% 0.0 mm CLR
18:20 37.3 °C 19.3 °C 1006.3 hPa ESE 16.1 km/h 24.1 km/h 35% 0.0 mm CLR
18:25 37.3 °C 19.7 °C 1006.3 hPa SE 16.1 km/h 20.4 km/h 36% 0.0 mm CLR
18:30 37.2 °C 19.6 °C 1006.3 hPa SE 14.8 km/h 27.8 km/h 36% 0.0 mm CLR
18:35 36.9 °C 19.4 °C 1006.2 hPa ESE 14.8 km/h 27.8 km/h 36% 0.0 mm CLR
18:40 36.7 °C 19.2 °C 1006.2 hPa SE 20.1 km/h 22.2 km/h 36% 0.0 mm CLR
18:45 36.6 °C 19.1 °C 1006.2 hPa ESE 20.1 km/h 20.4 km/h 36% 0.0 mm CLR
18:50 36.6 °C 19.1 °C 1006.0 hPa SE 16.4 km/h 22.2 km/h 36% 0.0 mm CLR
18:55 36.6 °C 19.1 °C 1006.0 hPa SE 16.4 km/h 18.5 km/h 36% 0.0 mm CLR
19:00 36.5 °C 19.0 °C 1006.0 hPa ESE 15.6 km/h 24.1 km/h 36% 0.0 mm CLR
19:05 36.3 °C 19.3 °C 1006.0 hPa ESE 15.6 km/h 25.9 km/h 37% 0.0 mm CLR
19:10 36.2 °C 19.2 °C 1006.0 hPa ESE 17.2 km/h 20.4 km/h 37% 0.0 mm CLR
19:15 36.2 °C 19.2 °C 1006.0 hPa ESE 17.2 km/h 25.9 km/h 37% 0.0 mm CLR
19:20 36.2 °C 18.8 °C 1005.9 hPa SE 14.8 km/h 18.5 km/h 36% 0.0 mm CLR
19:25 36.2 °C 19.2 °C 1005.9 hPa ESE 14.8 km/h 18.5 km/h 37% 0.0 mm CLR
19:30 36.1 °C 18.7 °C 1005.9 hPa ESE 14.8 km/h 20.4 km/h 36% 0.0 mm CLR
19:35 36.0 °C 18.6 °C 1006.1 hPa East 14.8 km/h 22.2 km/h 36% 0.0 mm CLR
19:40 35.9 °C 18.1 °C 1006.1 hPa East 13.7 km/h 16.7 km/h 35% 0.0 mm CLR
19:45 35.8 °C 18.4 °C 1006.1 hPa ESE 13.7 km/h 24.1 km/h 36% 0.0 mm CLR
19:50 35.6 °C 18.2 °C 1006.0 hPa East 15.6 km/h 18.5 km/h 36% 0.0 mm CLR
19:55 35.6 °C 18.2 °C 1006.0 hPa SSE 15.6 km/h 14.8 km/h 36% 0.0 mm CLR
20:00 35.4 °C 17.6 °C 1006.0 hPa ESE 11.9 km/h 22.2 km/h 35% 0.0 mm CLR
20:05 35.3 °C 17.9 °C 1006.1 hPa ESE 11.9 km/h 14.8 km/h 36% 0.0 mm CLR
20:10 35.2 °C 17.9 °C 1006.1 hPa South 10.3 km/h 7.4 km/h 36% 0.0 mm CLR
20:15 35.2 °C 16.9 °C 1006.1 hPa ESE 10.3 km/h 9.3 km/h 34% 0.0 mm CLR
20:20 35.1 °C 17.3 °C 1006.3 hPa East 7.6 km/h 9.3 km/h 35% 0.0 mm CLR
20:25 34.9 °C 17.6 °C 1006.3 hPa NNE 7.6 km/h 20.1 km/h 36% 0.0 mm CLR
20:30 34.1 °C 20.1 °C 1006.3 hPa NNE 8.7 km/h 25.9 km/h 44% 0.0 mm CLR
20:35 33.0 °C 19.8 °C 1006.7 hPa ENE 8.7 km/h 25.6 km/h 46% 0.0 mm CLR
20:40 32.2 °C 20.8 °C 1006.7 hPa North 16.4 km/h 24.1 km/h 51% 0.0 mm CLR
20:45 31.7 °C 20.9 °C 1006.7 hPa NNW 16.4 km/h 31.5 km/h 53% 0.0 mm CLR
20:50 31.3 °C 21.2 °C 1006.8 hPa NE 18.3 km/h 25.9 km/h 55% 0.0 mm CLR
20:55 31.1 °C 21.6 °C 1006.8 hPa NNE 18.3 km/h 18.3 km/h 57% 0.0 mm CLR
21:00 30.8 °C 21.9 °C 1006.8 hPa NNE 16.1 km/h 25.7 km/h 59% 0.0 mm CLR
21:05 30.5 °C 22.1 °C 1007.1 hPa NNE 16.4 km/h 22.2 km/h 61% 0.0 mm CLR
21:10 30.3 °C 21.9 °C 1007.1 hPa NNE 14.8 km/h 25.9 km/h 61% 0.0 mm CLR
21:15 30.1 °C 22.0 °C 1007.1 hPa NE 14.8 km/h 24.1 km/h 62% 0.0 mm CLR
21:20 29.9 °C 21.8 °C 1007.2 hPa NNE 16.4 km/h 25.9 km/h 62% 0.0 mm CLR
21:25 29.8 °C 21.7 °C 1007.2 hPa NNE 16.4 km/h 22.2 km/h 62% 0.0 mm CLR
21:30 29.7 °C 21.9 °C 1007.2 hPa NE 14.8 km/h 20.4 km/h 63% 0.0 mm CLR
21:35 29.5 °C 21.9 °C 1007.4 hPa NE 14.8 km/h 20.4 km/h 64% 0.0 mm CLR
21:40 29.4 °C 21.9 °C 1007.4 hPa NE 13.7 km/h 18.5 km/h 64% 0.0 mm CLR
21:45 29.3 °C 21.8 °C 1007.4 hPa ENE 13.7 km/h 16.7 km/h 64% 0.0 mm CLR
21:50 29.3 °C 21.8 °C 1007.6 hPa NE 12.2 km/h 13.0 km/h 64% 0.0 mm CLR
21:55 29.2 °C 21.9 °C 1007.6 hPa NNE 12.2 km/h 20.4 km/h 65% 0.0 mm CLR
22:00 29.1 °C 22.1 °C 1007.6 hPa NNE 12.2 km/h 16.7 km/h 66% 0.0 mm CLR
22:05 28.9 °C 21.9 °C 1007.9 hPa NNE 12.2 km/h 14.8 km/h 66% 0.0 mm CLR
22:10 28.8 °C 22.1 °C 1007.9 hPa ENE 10.0 km/h 14.8 km/h 67% 0.0 mm CLR
22:15 28.7 °C 22.2 °C 1007.9 hPa North 10.0 km/h 13.0 km/h 68% 0.0 mm CLR
22:20 28.7 °C 22.2 °C 1008.1 hPa NE 8.7 km/h 16.7 km/h 68% 0.0 mm CLR
22:25 28.5 °C 22.0 °C 1008.1 hPa NNE 8.7 km/h 18.5 km/h 68% 0.0 mm CLR
22:30 28.5 °C 22.0 °C 1008.1 hPa NNE 11.9 km/h 13.7 km/h 68% 0.0 mm CLR
22:35 28.5 °C 22.0 °C 1008.1 hPa NE 11.9 km/h 14.0 km/h 68% 0.0 mm CLR
22:40 28.4 °C 22.2 °C 1008.1 hPa ENE 9.5 km/h 11.1 km/h 69% 0.0 mm CLR
22:45 28.3 °C 22.1 °C 1008.1 hPa NNW 9.5 km/h 13.0 km/h 69% 0.0 mm CLR
22:50 28.2 °C 22.2 °C 1008.3 hPa NE 8.7 km/h 14.8 km/h 70% 0.0 mm CLR
22:55 28.1 °C 22.3 °C 1008.3 hPa NNE 8.7 km/h 18.5 km/h 71% 0.0 mm CLR
23:00 27.9 °C 22.2 °C 1008.3 hPa NNE 9.5 km/h 14.8 km/h 71% 0.0 mm CLR
23:05 27.8 °C 22.3 °C 1008.4 hPa North 9.5 km/h 22.0 km/h 72% 0.0 mm CLR
23:10 27.7 °C 22.2 °C 1008.4 hPa NNE 13.7 km/h 18.5 km/h 72% 0.0 mm CLR
23:15 27.7 °C 22.2 °C 1008.4 hPa NE 13.7 km/h 14.8 km/h 72% 0.0 mm CLR
23:20 27.6 °C 22.1 °C 1008.3 hPa North 11.1 km/h 18.5 km/h 72% 0.0 mm CLR
23:25 27.6 °C 22.1 °C 1008.3 hPa NNW 11.1 km/h 11.1 km/h 72% 0.0 mm CLR
23:30 27.6 °C 22.1 °C 1008.3 hPa ENE 10.0 km/h 11.1 km/h 72% 0.0 mm CLR
23:35 27.6 °C 22.1 °C 1008.2 hPa NE 10.0 km/h 11.1 km/h 72% 0.0 mm CLR
23:40 27.7 °C 21.9 °C 1008.2 hPa NNW 8.4 km/h 14.8 km/h 71% 0.0 mm CLR
23:45 27.7 °C 21.9 °C 1008.2 hPa NNE 8.4 km/h 14.8 km/h 71% 0.0 mm CLR
23:50 27.6 °C 22.1 °C 1008.3 hPa NW 8.4 km/h 13.0 km/h 72% 0.0 mm CLR
23:55 27.5 °C 22.0 °C 1008.3 hPa NNE 8.4 km/h 9.3 km/h 72% 0.0 mm CLR
Murcia-Puente Tocinos, España
Compliments of Weather Underground - 2.75 mb

La estación de MeteoMurcia.com, publica sus datos en los siguientes proyectos:

Weather Underground PWS IMURCIAP2 Meteoclimatic www.awekas.at

W3Counter
Web Analytics